createdAt,value
2018-03-06T00:00:57.483Z,96.92
2018-03-06T00:01:57.495Z,96.55
2018-03-06T00:02:57.512Z,97.02
2018-03-06T00:03:57.524Z,97.11
2018-03-06T00:04:57.542Z,97.49
2018-03-06T00:05:57.557Z,97.21
2018-03-06T00:06:57.572Z,97.59
2018-03-06T00:07:57.588Z,97.59
2018-03-06T00:08:57.603Z,97.59
2018-03-06T00:09:57.619Z,97.30
2018-03-06T00:10:57.635Z,97.78
2018-03-06T00:11:57.650Z,97.59
2018-03-06T00:12:57.665Z,96.88
2018-03-06T00:13:57.681Z,97.02
2018-03-06T00:14:57.698Z,96.73
2018-03-06T00:15:57.711Z,96.83
2018-03-06T00:16:57.728Z,97.11
2018-03-06T00:17:57.743Z,97.02
2018-03-06T00:18:57.758Z,96.92
2018-03-06T00:19:57.774Z,96.64
2018-03-06T00:20:57.790Z,96.64
2018-03-06T00:21:57.806Z,96.83
2018-03-06T00:22:57.821Z,96.92
2018-03-06T00:23:57.836Z,97.02
2018-03-06T00:24:57.851Z,97.11
2018-03-06T00:25:57.867Z,97.30
2018-03-06T00:26:57.882Z,97.68
2018-03-06T00:27:58.102Z,97.49
2018-03-06T00:28:57.914Z,98.25
2018-03-06T00:29:57.929Z,97.78
2018-03-06T00:30:58.095Z,98.25
2018-03-06T00:31:57.960Z,97.21
2018-03-06T00:32:57.976Z,97.87
2018-03-06T00:33:57.994Z,97.30
2018-03-06T00:34:58.007Z,97.97
2018-03-06T00:35:58.021Z,97.87
2018-03-06T00:36:58.037Z,97.97
2018-03-06T00:37:58.053Z,97.59
2018-03-06T00:38:58.070Z,97.49
2018-03-06T00:39:58.083Z,97.02
2018-03-06T00:40:58.100Z,97.59
2018-03-06T00:41:58.115Z,98.25
2018-03-06T00:42:58.131Z,98.44
2018-03-06T00:43:58.146Z,97.97
2018-03-06T00:44:58.161Z,97.59
2018-03-06T00:45:58.180Z,97.78
2018-03-06T00:46:58.192Z,97.87
2018-03-06T00:47:58.207Z,98.16
2018-03-06T00:48:58.223Z,97.97
2018-03-06T00:49:58.239Z,97.97
2018-03-06T00:50:58.254Z,97.78
2018-03-06T00:51:58.269Z,98.16
2018-03-06T00:52:58.285Z,98.35
2018-03-06T00:53:58.301Z,98.06
2018-03-06T00:54:58.318Z,97.21
2018-03-06T00:55:58.331Z,97.78
2018-03-06T00:56:58.347Z,97.30
2018-03-06T00:57:58.362Z,97.21
2018-03-06T00:58:58.379Z,97.21
2018-03-06T00:59:58.393Z,97.78
2018-03-06T01:00:58.408Z,97.59
2018-03-06T01:01:58.426Z,97.78
2018-03-06T01:02:58.441Z,97.59
2018-03-06T01:03:58.459Z,97.59
2018-03-06T01:04:58.470Z,97.78
2018-03-06T01:05:58.486Z,97.68
2018-03-06T01:06:58.502Z,97.59
2018-03-06T01:07:58.515Z,97.59
2018-03-06T01:08:58.532Z,98.06
2018-03-06T01:09:58.547Z,98.06
2018-03-06T01:10:58.563Z,97.49
2018-03-06T01:11:58.578Z,97.78
2018-03-06T01:12:58.595Z,98.06
2018-03-06T01:13:58.609Z,98.16
2018-03-06T01:14:58.625Z,98.54
2018-03-06T01:15:58.639Z,99.01
2018-03-06T01:16:58.655Z,98.72
2018-03-06T01:17:58.721Z,99.10
2018-03-06T01:18:58.687Z,99.24
2018-03-06T01:19:58.700Z,99.29
2018-03-06T01:20:58.720Z,99.20
2018-03-06T01:21:58.732Z,99.39
2018-03-06T01:22:58.748Z,99.48
2018-03-06T01:23:58.763Z,98.63
2018-03-06T01:24:58.779Z,98.82
2018-03-06T01:25:58.795Z,99.10
2018-03-06T01:26:58.809Z,99.29
2018-03-06T01:27:58.824Z,99.39
2018-03-06T01:28:58.841Z,99.10
2018-03-06T01:29:58.855Z,99.48
2018-03-06T01:30:58.870Z,99.48
2018-03-06T01:31:58.886Z,99.58
2018-03-06T01:32:58.901Z,99.48
2018-03-06T01:33:58.917Z,99.39
2018-03-06T01:34:58.932Z,99.58
2018-03-06T01:35:58.948Z,99.33
2018-03-06T01:36:58.962Z,99.01
2018-03-06T01:37:58.978Z,99.58
2018-03-06T01:38:58.994Z,99.39
2018-03-06T01:39:59.008Z,99.77
2018-03-06T01:40:59.024Z,99.39
2018-03-06T01:41:59.043Z,99.58
2018-03-06T01:42:59.054Z,99.29
2018-03-06T01:43:59.068Z,99.29
2018-03-06T01:44:59.085Z,99.48
2018-03-06T01:45:59.100Z,99.29
2018-03-06T01:46:59.116Z,99.39
2018-03-06T01:47:59.182Z,99.20
2018-03-06T01:48:59.146Z,99.39
2018-03-06T01:49:59.161Z,99.39
2018-03-06T01:50:59.178Z,99.15
2018-03-06T01:51:59.192Z,99.58
2018-03-06T01:52:59.206Z,99.62
2018-03-06T01:53:59.222Z,99.86
2018-03-06T01:54:59.237Z,99.99
2018-03-06T01:55:59.252Z,99.99
2018-03-06T01:56:59.267Z,99.99
2018-03-06T01:57:59.283Z,99.62
2018-03-06T01:58:59.299Z,99.90
2018-03-06T01:59:59.317Z,99.99
2018-03-06T02:00:59.329Z,99.99
2018-03-06T02:01:59.344Z,99.99
2018-03-06T02:02:59.359Z,99.99
2018-03-06T02:03:59.375Z,99.81
2018-03-06T02:04:59.388Z,99.99
2018-03-06T02:05:59.404Z,99.99
2018-03-06T02:06:59.419Z,99.99
2018-03-06T02:07:59.433Z,99.99
2018-03-06T02:08:59.449Z,99.99
2018-03-06T02:09:59.464Z,99.99
2018-03-06T02:10:59.480Z,99.99
2018-03-06T02:11:59.495Z,99.99
2018-03-06T02:12:59.511Z,99.99
2018-03-06T02:13:59.524Z,99.99
2018-03-06T02:14:59.539Z,99.99
2018-03-06T02:15:59.564Z,99.99
2018-03-06T02:16:59.569Z,99.99
2018-03-06T02:17:59.585Z,99.99
2018-03-06T02:18:59.613Z,99.99
2018-03-06T02:19:59.614Z,99.99
2018-03-06T02:20:59.631Z,99.99
2018-03-06T02:21:59.644Z,99.99
2018-03-06T02:22:59.660Z,99.99
2018-03-06T02:23:59.675Z,99.99
2018-03-06T02:24:59.690Z,99.99
2018-03-06T02:25:59.704Z,99.99
2018-03-06T02:26:59.720Z,99.99
2018-03-06T02:27:59.735Z,99.99
2018-03-06T02:28:59.750Z,99.99
2018-03-06T02:29:59.765Z,99.99
2018-03-06T02:30:59.780Z,99.99
2018-03-06T02:31:59.794Z,99.99
2018-03-06T02:32:59.810Z,99.99
2018-03-06T02:33:59.826Z,99.99
2018-03-06T02:34:59.840Z,99.99
2018-03-06T02:35:59.854Z,99.99
2018-03-06T02:36:59.871Z,99.99
2018-03-06T02:37:59.886Z,99.99
2018-03-06T02:38:59.900Z,99.99
2018-03-06T02:39:59.915Z,99.99
2018-03-06T02:40:59.930Z,99.99
2018-03-06T02:41:59.944Z,99.99
2018-03-06T02:42:59.960Z,99.99
2018-03-06T02:43:59.975Z,99.99
2018-03-06T02:44:59.990Z,99.99
2018-03-06T02:46:00.005Z,99.99
2018-03-06T02:47:00.021Z,99.99
2018-03-06T02:48:00.037Z,99.99
2018-03-06T02:49:00.050Z,99.99
2018-03-06T02:50:00.066Z,99.99
2018-03-06T02:51:00.080Z,99.99
2018-03-06T02:52:00.096Z,99.99
2018-03-06T02:53:00.111Z,99.99
2018-03-06T02:54:00.124Z,99.99
2018-03-06T02:55:00.140Z,99.99
2018-03-06T02:56:00.154Z,99.99
2018-03-06T02:57:00.169Z,99.99
2018-03-06T02:58:00.185Z,99.99
2018-03-06T02:59:00.200Z,99.99
2018-03-06T03:00:00.215Z,99.99
2018-03-06T03:01:00.231Z,99.99
2018-03-06T03:02:00.244Z,99.99
2018-03-06T03:03:00.259Z,99.99
2018-03-06T03:04:00.274Z,99.99
2018-03-06T03:05:00.290Z,99.99
2018-03-06T03:06:00.307Z,99.99
2018-03-06T03:07:00.321Z,99.99
2018-03-06T03:08:00.334Z,99.99
2018-03-06T03:09:00.349Z,99.99
2018-03-06T03:10:00.365Z,99.99
2018-03-06T03:11:00.379Z,99.99
2018-03-06T03:12:00.393Z,99.99
2018-03-06T03:13:00.410Z,99.99
2018-03-06T03:14:00.424Z,99.99
2018-03-06T03:15:00.439Z,99.99
2018-03-06T03:16:00.453Z,99.99
2018-03-06T03:17:00.468Z,99.99
2018-03-06T03:18:00.483Z,99.99
2018-03-06T03:19:00.499Z,99.99
2018-03-06T03:20:00.512Z,99.99
2018-03-06T03:21:00.576Z,99.99
2018-03-06T03:22:00.543Z,99.99
2018-03-06T03:23:00.558Z,99.99
2018-03-06T03:24:00.571Z,99.99
2018-03-06T03:25:00.588Z,99.99
2018-03-06T03:26:00.608Z,99.99
2018-03-06T03:27:00.918Z,99.99
2018-03-06T03:28:00.632Z,99.99
2018-03-06T03:29:00.646Z,99.99
2018-03-06T03:30:00.662Z,99.99
2018-03-06T03:31:00.679Z,99.99
2018-03-06T03:32:00.691Z,99.99
2018-03-06T03:33:00.705Z,99.99
2018-03-06T03:34:00.722Z,99.99
2018-03-06T03:35:00.737Z,99.99
2018-03-06T03:36:00.750Z,99.99
2018-03-06T03:37:00.766Z,99.99
2018-03-06T03:38:00.780Z,99.99
2018-03-06T03:39:00.795Z,99.99
2018-03-06T03:40:00.809Z,99.99
2018-03-06T03:41:00.825Z,99.99
2018-03-06T03:42:00.839Z,99.99
2018-03-06T03:43:00.854Z,99.99
2018-03-06T03:44:00.869Z,99.99
2018-03-06T03:45:00.884Z,99.99
2018-03-06T03:46:00.899Z,99.99
2018-03-06T03:47:00.914Z,99.99
2018-03-06T03:48:00.928Z,99.99
2018-03-06T03:49:00.943Z,99.99
2018-03-06T03:50:01.058Z,99.99
2018-03-06T03:51:00.972Z,99.99
2018-03-06T03:52:00.987Z,99.99
2018-03-06T03:53:01.002Z,99.99
2018-03-06T03:54:01.017Z,99.99
2018-03-06T03:55:01.032Z,99.99
2018-03-06T03:56:01.045Z,99.99
2018-03-06T03:57:01.061Z,99.99
2018-03-06T03:58:01.077Z,99.99
2018-03-06T03:59:01.090Z,99.99
2018-03-06T04:00:01.108Z,99.99
2018-03-06T04:01:01.121Z,99.99
2018-03-06T04:02:01.135Z,99.99
2018-03-06T04:03:01.150Z,99.99
2018-03-06T04:04:01.164Z,99.99
2018-03-06T04:05:01.182Z,99.99
2018-03-06T04:06:01.194Z,99.99
2018-03-06T04:07:01.210Z,99.99
2018-03-06T04:08:01.224Z,99.99
2018-03-06T04:09:01.238Z,99.99
2018-03-06T04:10:01.254Z,99.99
2018-03-06T04:11:01.268Z,99.99
2018-03-06T04:12:01.283Z,99.99
2018-03-06T04:13:01.298Z,99.99
2018-03-06T04:14:01.312Z,99.99
2018-03-06T04:15:01.328Z,99.99
2018-03-06T04:16:01.342Z,99.99
2018-03-06T04:17:01.356Z,99.99
2018-03-06T04:18:01.371Z,99.99
2018-03-06T04:19:01.386Z,99.99
2018-03-06T04:20:01.401Z,99.99
2018-03-06T04:21:01.416Z,99.99
2018-03-06T04:22:01.430Z,99.99
2018-03-06T04:23:01.446Z,99.99
2018-03-06T04:24:01.460Z,99.99
2018-03-06T04:25:01.475Z,99.99
2018-03-06T04:26:01.490Z,99.99
2018-03-06T04:27:01.505Z,99.99
2018-03-06T04:28:01.520Z,99.99
2018-03-06T04:29:01.534Z,99.99
2018-03-06T04:30:01.550Z,99.99
2018-03-06T04:31:01.565Z,99.99
2018-03-06T04:32:01.578Z,99.99
2018-03-06T04:33:01.594Z,99.99
2018-03-06T04:34:01.608Z,99.99
2018-03-06T04:35:01.624Z,99.99
2018-03-06T04:36:01.638Z,99.99
2018-03-06T04:37:01.652Z,99.99
2018-03-06T04:38:01.667Z,99.99
2018-03-06T04:39:01.682Z,99.99
2018-03-06T04:40:01.697Z,99.99
2018-03-06T04:41:01.713Z,99.99
2018-03-06T04:42:01.727Z,99.99
2018-03-06T04:43:01.743Z,99.99
2018-03-06T04:44:01.756Z,99.99
2018-03-06T04:45:01.772Z,99.99
2018-03-06T04:46:01.786Z,99.99
2018-03-06T04:47:01.801Z,99.99
2018-03-06T04:48:01.815Z,99.99
2018-03-06T04:49:01.830Z,99.99
2018-03-06T04:50:01.843Z,99.99
2018-03-06T04:51:01.860Z,99.99
2018-03-06T04:52:01.874Z,99.99
2018-03-06T04:53:01.889Z,99.99
2018-03-06T04:54:01.903Z,99.99
2018-03-06T04:55:01.919Z,99.99
2018-03-06T04:56:01.935Z,99.99
2018-03-06T04:57:01.947Z,99.99
2018-03-06T04:58:01.963Z,99.99
2018-03-06T04:59:01.978Z,99.99
2018-03-06T05:00:01.992Z,99.99
2018-03-06T05:01:02.007Z,99.99
2018-03-06T05:02:02.023Z,99.99
2018-03-06T05:03:02.036Z,99.99
2018-03-06T05:04:02.050Z,99.99
2018-03-06T05:05:02.066Z,99.99
2018-03-06T05:06:02.080Z,99.99
2018-03-06T05:07:02.096Z,99.99
2018-03-06T05:08:02.113Z,99.99
2018-03-06T05:09:02.124Z,99.99
2018-03-06T05:10:02.139Z,99.99
2018-03-06T05:11:02.168Z,99.99
2018-03-06T05:12:02.172Z,99.99
2018-03-06T05:13:02.184Z,99.99
2018-03-06T05:14:02.200Z,99.99
2018-03-06T05:15:02.214Z,99.99
2018-03-06T05:16:02.228Z,99.99
2018-03-06T05:17:02.243Z,99.99
2018-03-06T05:18:02.258Z,99.99
2018-03-06T05:19:02.272Z,99.99
2018-03-06T05:20:02.287Z,99.99
2018-03-06T05:21:02.301Z,99.99
2018-03-06T05:22:02.419Z,99.99
2018-03-06T05:23:02.332Z,99.99
2018-03-06T05:24:02.346Z,99.99
2018-03-06T05:25:02.367Z,99.99
2018-03-06T05:26:02.376Z,99.99
2018-03-06T05:27:02.395Z,99.99
2018-03-06T05:28:02.407Z,99.99
2018-03-06T05:29:02.420Z,99.99
2018-03-06T05:30:02.437Z,99.99
2018-03-06T05:31:02.450Z,99.99
2018-03-06T05:32:02.467Z,99.99
2018-03-06T05:33:02.480Z,99.99
2018-03-06T05:34:02.494Z,99.99
2018-03-06T05:35:02.511Z,99.99
2018-03-06T05:36:02.523Z,99.99
2018-03-06T05:37:02.538Z,99.99
2018-03-06T05:38:02.553Z,99.99
2018-03-06T05:39:02.579Z,99.99
2018-03-06T05:40:02.582Z,99.99
2018-03-06T05:41:02.597Z,99.99
2018-03-06T05:42:02.613Z,99.99
2018-03-06T05:43:02.628Z,99.99
2018-03-06T05:44:02.641Z,99.99
2018-03-06T05:45:02.656Z,99.99
2018-03-06T05:46:02.673Z,99.99
2018-03-06T05:47:02.686Z,99.99
2018-03-06T05:48:02.700Z,99.99
2018-03-06T05:49:02.715Z,99.99
2018-03-06T05:50:02.732Z,99.99
2018-03-06T05:51:02.747Z,99.99
2018-03-06T05:52:02.759Z,99.99
2018-03-06T05:53:02.774Z,99.99
2018-03-06T05:54:02.789Z,99.99
2018-03-06T05:55:02.804Z,99.99
2018-03-06T05:56:02.818Z,99.99
2018-03-06T05:57:02.833Z,99.99
2018-03-06T05:58:02.848Z,99.99
2018-03-06T05:59:02.863Z,99.99
2018-03-06T06:00:02.878Z,99.99
2018-03-06T06:01:02.892Z,99.99
2018-03-06T06:02:02.906Z,99.99
2018-03-06T06:03:02.922Z,99.99
2018-03-06T06:04:02.936Z,99.99
2018-03-06T06:05:02.951Z,99.99
2018-03-06T06:06:02.966Z,99.99
2018-03-06T06:07:02.984Z,99.99
2018-03-06T06:08:02.995Z,99.99
2018-03-06T06:09:03.011Z,99.99
2018-03-06T06:10:03.025Z,99.99
2018-03-06T06:11:03.040Z,99.99
2018-03-06T06:12:03.053Z,99.99
2018-03-06T06:13:03.070Z,99.99
2018-03-06T06:14:03.083Z,99.99
2018-03-06T06:15:03.099Z,99.99
2018-03-06T06:16:03.113Z,99.99
2018-03-06T06:17:03.128Z,99.99
2018-03-06T06:18:03.144Z,99.99
2018-03-06T06:19:03.159Z,99.99
2018-03-06T06:20:03.173Z,99.99
2018-03-06T06:21:03.188Z,99.99
2018-03-06T06:22:03.202Z,99.99
2018-03-06T06:23:03.217Z,99.99
2018-03-06T06:24:03.232Z,99.99
2018-03-06T06:25:03.246Z,99.99
2018-03-06T06:26:03.260Z,99.99
2018-03-06T06:27:03.275Z,99.99
2018-03-06T06:28:03.290Z,99.99
2018-03-06T06:29:03.304Z,99.99
2018-03-06T06:30:03.321Z,99.99
2018-03-06T06:31:03.336Z,99.99
2018-03-06T06:32:03.349Z,99.99
2018-03-06T06:33:03.365Z,99.99
2018-03-06T06:34:03.380Z,99.99
2018-03-06T06:35:03.394Z,99.99
2018-03-06T06:36:03.408Z,99.99
2018-03-06T06:37:03.423Z,99.99
2018-03-06T06:38:03.439Z,99.99
2018-03-06T06:39:03.453Z,99.99
2018-03-06T06:40:03.470Z,99.99
2018-03-06T06:41:03.483Z,99.99
2018-03-06T06:42:03.497Z,99.99
2018-03-06T06:43:03.512Z,99.99
2018-03-06T06:44:03.526Z,99.99
2018-03-06T06:45:03.542Z,99.99
2018-03-06T06:46:03.557Z,99.99
2018-03-06T06:47:03.572Z,99.99
2018-03-06T06:48:03.585Z,99.99
2018-03-06T06:49:03.601Z,99.99
2018-03-06T06:50:03.616Z,99.99
2018-03-06T06:51:03.631Z,99.99
2018-03-06T06:52:03.646Z,99.99
2018-03-06T06:53:03.660Z,99.99
2018-03-06T06:54:03.676Z,99.99
2018-03-06T06:55:03.691Z,99.99
2018-03-06T06:56:03.705Z,99.99
2018-03-06T06:57:03.722Z,99.99
2018-03-06T06:58:03.737Z,99.99
2018-03-06T06:59:03.751Z,99.99
2018-03-06T07:00:03.765Z,99.99
2018-03-06T07:01:03.780Z,99.99
2018-03-06T07:02:03.795Z,99.99
2018-03-06T07:03:03.811Z,99.99
2018-03-06T07:04:03.824Z,99.99
2018-03-06T07:05:03.841Z,99.99
2018-03-06T07:06:03.856Z,99.99
2018-03-06T07:07:03.870Z,99.99
2018-03-06T07:08:03.886Z,99.99
2018-03-06T07:09:03.905Z,99.99
2018-03-06T07:10:03.915Z,99.99
2018-03-06T07:11:03.932Z,99.99
2018-03-06T07:12:03.946Z,99.99
2018-03-06T07:13:03.962Z,99.99
2018-03-06T07:14:03.978Z,99.99
2018-03-06T07:15:03.993Z,99.99
2018-03-06T07:16:04.011Z,99.99
2018-03-06T07:17:04.050Z,99.99
2018-03-06T07:18:04.038Z,99.99
2018-03-06T07:19:04.052Z,99.99
2018-03-06T07:20:04.067Z,99.99
2018-03-06T07:21:04.082Z,99.99
2018-03-06T07:22:04.099Z,99.99
2018-03-06T07:23:04.114Z,99.99
2018-03-06T07:24:04.128Z,99.99
2018-03-06T07:25:04.143Z,99.99
2018-03-06T07:26:04.159Z,99.99
2018-03-06T07:27:04.174Z,99.99
2018-03-06T07:28:04.189Z,99.99
2018-03-06T07:29:04.204Z,99.99
2018-03-06T07:30:04.219Z,99.99
2018-03-06T07:31:04.234Z,99.99
2018-03-06T07:32:04.249Z,99.99
2018-03-06T07:33:04.263Z,99.99
2018-03-06T07:34:04.279Z,99.99
2018-03-06T07:35:04.295Z,99.99
2018-03-06T07:36:04.310Z,99.99
2018-03-06T07:37:04.328Z,99.99
2018-03-06T07:38:04.369Z,99.99
2018-03-06T07:39:04.355Z,99.99
2018-03-06T07:40:04.372Z,99.99
2018-03-06T07:41:04.386Z,99.99
2018-03-06T07:42:04.401Z,99.99
2018-03-06T07:43:04.417Z,99.99
2018-03-06T07:44:04.432Z,99.99
2018-03-06T07:45:04.447Z,99.99
2018-03-06T07:46:04.463Z,99.99
2018-03-06T07:47:04.478Z,99.99
2018-03-06T07:48:04.495Z,99.99
2018-03-06T07:49:04.508Z,99.99
2018-03-06T07:50:04.524Z,99.99
2018-03-06T07:51:04.540Z,99.99
2018-03-06T07:52:04.552Z,99.99
2018-03-06T07:53:04.615Z,99.96
2018-03-06T07:54:04.642Z,99.99
2018-03-06T07:55:04.601Z,99.96
2018-03-06T07:56:04.622Z,99.99
2018-03-06T07:57:04.630Z,99.99
2018-03-06T07:58:04.646Z,99.86
2018-03-06T07:59:04.662Z,99.48
2018-03-06T08:00:04.683Z,99.48
2018-03-06T08:01:04.693Z,99.48
2018-03-06T08:02:04.715Z,99.20
2018-03-06T08:03:04.724Z,99.58
2018-03-06T08:04:04.739Z,99.06
2018-03-06T08:05:04.754Z,98.87
2018-03-06T08:06:04.774Z,98.77
2018-03-06T08:07:04.786Z,99.15
2018-03-06T08:08:04.803Z,98.30
2018-03-06T08:09:04.817Z,98.11
2018-03-06T08:10:04.833Z,98.11
2018-03-06T08:11:04.849Z,97.92
2018-03-06T08:12:04.863Z,98.58
2018-03-06T08:13:04.935Z,98.21
2018-03-06T08:14:04.894Z,98.30
2018-03-06T08:15:04.911Z,97.92
2018-03-06T08:16:04.926Z,98.02
2018-03-06T08:17:04.942Z,98.11
2018-03-06T08:18:04.958Z,97.35
2018-03-06T08:19:04.975Z,97.54
2018-03-06T08:20:04.990Z,97.54
2018-03-06T08:21:05.005Z,97.35
2018-03-06T08:22:05.022Z,97.12
2018-03-06T08:23:05.038Z,97.35
2018-03-06T08:24:05.052Z,96.88
2018-03-06T08:25:05.069Z,96.45
2018-03-06T08:26:05.085Z,96.64
2018-03-06T08:27:05.101Z,96.36
2018-03-06T08:28:05.116Z,96.55
2018-03-06T08:29:05.136Z,96.55
2018-03-06T08:30:05.149Z,96.55
2018-03-06T08:31:05.165Z,96.08
2018-03-06T08:32:05.180Z,96.26
2018-03-06T08:33:05.197Z,95.98
2018-03-06T08:34:05.212Z,95.69
2018-03-06T08:35:05.229Z,95.12
2018-03-06T08:36:05.244Z,95.50
2018-03-06T08:37:05.261Z,94.84
2018-03-06T08:38:05.278Z,94.84
2018-03-06T08:39:05.294Z,94.46
2018-03-06T08:40:05.309Z,94.51
2018-03-06T08:41:05.326Z,94.89
2018-03-06T08:42:05.345Z,94.13
2018-03-06T08:43:05.359Z,94.13
2018-03-06T08:44:05.373Z,94.60
2018-03-06T08:45:05.391Z,94.60
2018-03-06T08:46:05.408Z,94.51
2018-03-06T08:47:05.423Z,94.98
2018-03-06T08:48:05.439Z,94.13
2018-03-06T08:49:05.456Z,94.51
2018-03-06T08:50:05.472Z,94.32
2018-03-06T08:51:05.490Z,94.89
2018-03-06T08:52:05.505Z,94.51
2018-03-06T08:53:05.525Z,94.42
2018-03-06T08:54:05.540Z,93.94
2018-03-06T08:55:05.555Z,94.23
2018-03-06T08:56:05.572Z,94.70
2018-03-06T08:57:05.588Z,94.60
2018-03-06T08:58:05.607Z,94.32
2018-03-06T08:59:05.624Z,94.03
2018-03-06T09:00:05.637Z,94.03
2018-03-06T09:01:05.659Z,94.13
2018-03-06T09:02:05.671Z,93.56
2018-03-06T09:03:05.691Z,92.90
2018-03-06T09:04:05.709Z,92.52
2018-03-06T09:05:05.720Z,92.66
2018-03-06T09:06:05.737Z,92.37
2018-03-06T09:07:05.754Z,92.47
2018-03-06T09:08:05.770Z,92.18
2018-03-06T09:09:05.787Z,91.24
2018-03-06T09:10:05.803Z,91.42
2018-03-06T09:11:05.822Z,91.14
2018-03-06T09:12:05.837Z,90.66
2018-03-06T09:13:05.856Z,90.47
2018-03-06T09:14:05.872Z,90.66
2018-03-06T09:15:05.889Z,90.61
2018-03-06T09:16:05.903Z,90.23
2018-03-06T09:17:05.922Z,90.33
2018-03-06T09:18:05.940Z,89.67
2018-03-06T09:19:05.956Z,89.86
2018-03-06T09:20:05.974Z,89.38
2018-03-06T09:21:05.991Z,89.19
2018-03-06T09:22:06.008Z,88.90
2018-03-06T09:23:06.027Z,88.24
2018-03-06T09:24:06.042Z,88.81
2018-03-06T09:25:06.058Z,89.28
2018-03-06T09:26:06.079Z,89.38
2018-03-06T09:27:06.094Z,88.90
2018-03-06T09:28:06.112Z,89.19
2018-03-06T09:29:06.128Z,89.00
2018-03-06T09:30:06.146Z,89.28
2018-03-06T09:31:06.173Z,88.90
2018-03-06T09:32:06.180Z,88.76
2018-03-06T09:33:06.197Z,88.76
2018-03-06T09:34:06.216Z,88.53
2018-03-06T09:35:06.234Z,88.28
2018-03-06T09:36:06.250Z,88.57
2018-03-06T09:37:06.267Z,88.76
2018-03-06T09:38:06.286Z,87.90
2018-03-06T09:39:06.303Z,87.71
2018-03-06T09:40:06.321Z,87.34
2018-03-06T09:41:06.336Z,87.34
2018-03-06T09:42:06.356Z,88.28
2018-03-06T09:43:06.375Z,86.90
2018-03-06T09:44:06.389Z,86.61
2018-03-06T09:45:06.408Z,85.76
2018-03-06T09:46:06.426Z,85.28
2018-03-06T09:47:06.482Z,85.86
2018-03-06T09:48:06.461Z,85.00
2018-03-06T09:49:06.478Z,85.28
2018-03-06T09:50:06.500Z,85.00
2018-03-06T09:51:06.515Z,85.28
2018-03-06T09:52:06.533Z,85.38
2018-03-06T09:53:06.552Z,85.28
2018-03-06T09:54:06.568Z,84.91
2018-03-06T09:55:06.591Z,85.00
2018-03-06T09:56:06.604Z,84.33
2018-03-06T09:57:06.627Z,84.24
2018-03-06T09:58:06.642Z,84.43
2018-03-06T09:59:06.658Z,84.09
2018-03-06T10:00:06.676Z,83.81
2018-03-06T10:01:06.694Z,83.04
2018-03-06T10:02:06.712Z,82.67
2018-03-06T10:03:06.733Z,82.86
2018-03-06T10:04:06.751Z,82.57
2018-03-06T10:05:06.766Z,82.38
2018-03-06T10:06:06.784Z,82.09
2018-03-06T10:07:06.804Z,82.38
2018-03-06T10:08:06.869Z,82.19
2018-03-06T10:09:06.839Z,81.56
2018-03-06T10:10:06.859Z,81.18
2018-03-06T10:11:06.877Z,80.80
2018-03-06T10:12:06.895Z,80.90
2018-03-06T10:13:06.913Z,80.52
2018-03-06T10:14:06.934Z,80.33
2018-03-06T10:15:06.951Z,80.23
2018-03-06T10:16:06.969Z,79.94
2018-03-06T10:17:06.988Z,79.47
2018-03-06T10:18:07.006Z,79.13
2018-03-06T10:19:07.026Z,78.90
2018-03-06T10:20:07.044Z,79.47
2018-03-06T10:21:07.063Z,79.38
2018-03-06T10:22:07.081Z,79.66
2018-03-06T10:23:07.101Z,79.60
2018-03-06T10:24:07.120Z,79.22
2018-03-06T10:25:07.139Z,78.08
2018-03-06T10:26:07.159Z,78.56
2018-03-06T10:27:07.177Z,78.12
2018-03-06T10:28:07.247Z,77.45
2018-03-06T10:29:07.214Z,76.79
2018-03-06T10:30:07.235Z,76.69
2018-03-06T10:31:07.253Z,75.93
2018-03-06T10:32:07.272Z,75.93
2018-03-06T10:33:07.293Z,75.93
2018-03-06T10:34:07.312Z,76.50
2018-03-06T10:35:07.331Z,76.69
2018-03-06T10:36:07.349Z,76.69
2018-03-06T10:37:07.369Z,76.31
2018-03-06T10:38:07.389Z,75.74
2018-03-06T10:39:07.409Z,75.74
2018-03-06T10:40:07.427Z,75.55
2018-03-06T10:41:07.446Z,76.12
2018-03-06T10:42:07.471Z,75.84
2018-03-06T10:43:07.487Z,76.50
2018-03-06T10:44:07.506Z,76.59
2018-03-06T10:45:07.525Z,76.12
2018-03-06T10:46:07.546Z,76.03
2018-03-06T10:47:07.609Z,75.87
2018-03-06T10:48:07.634Z,74.73
2018-03-06T10:49:07.604Z,74.54
2018-03-06T10:50:07.623Z,74.16
2018-03-06T10:51:07.643Z,74.25
2018-03-06T10:52:07.664Z,74.44
2018-03-06T10:53:07.683Z,73.96
2018-03-06T10:54:07.702Z,72.34
2018-03-06T10:55:07.722Z,72.72
2018-03-06T10:56:07.741Z,71.87
2018-03-06T10:57:07.761Z,71.87
2018-03-06T10:58:07.780Z,71.72
2018-03-06T10:59:07.803Z,71.14
2018-03-06T11:00:07.820Z,70.67
2018-03-06T11:01:07.880Z,70.38
2018-03-06T11:02:07.861Z,69.81
2018-03-06T11:03:08.081Z,69.14
2018-03-06T11:04:07.901Z,69.90
2018-03-06T11:05:07.921Z,70.09
2018-03-06T11:06:07.941Z,70.00
2018-03-06T11:07:07.961Z,69.04
2018-03-06T11:08:07.983Z,69.04
2018-03-06T11:09:08.001Z,69.62
2018-03-06T11:10:08.022Z,69.14
2018-03-06T11:11:08.042Z,68.95
2018-03-06T11:12:08.061Z,69.23
2018-03-06T11:13:08.082Z,69.04
2018-03-06T11:14:08.103Z,68.79
2018-03-06T11:15:08.123Z,68.41
2018-03-06T11:16:08.150Z,68.51
2018-03-06T11:17:08.166Z,68.79
2018-03-06T11:18:08.185Z,68.79
2018-03-06T11:19:08.205Z,67.74
2018-03-06T11:20:08.225Z,68.60
2018-03-06T11:21:08.246Z,68.41
2018-03-06T11:22:08.266Z,68.51
2018-03-06T11:23:08.288Z,68.76
2018-03-06T11:24:08.307Z,69.04
2018-03-06T11:25:08.328Z,69.23
2018-03-06T11:26:08.349Z,69.37
2018-03-06T11:27:08.370Z,68.98
2018-03-06T11:28:08.389Z,68.88
2018-03-06T11:29:08.411Z,68.32
2018-03-06T11:30:08.441Z,68.32
2018-03-06T11:31:08.453Z,68.79
2018-03-06T11:32:08.472Z,68.51
2018-03-06T11:33:08.493Z,68.22
2018-03-06T11:34:08.514Z,68.22
2018-03-06T11:35:08.535Z,67.17
2018-03-06T11:36:08.555Z,67.74
2018-03-06T11:37:08.577Z,67.46
2018-03-06T11:38:08.597Z,68.32
2018-03-06T11:39:08.618Z,67.74
2018-03-06T11:40:08.638Z,68.26
2018-03-06T11:41:08.658Z,68.16
2018-03-06T11:42:08.680Z,68.44
2018-03-06T11:43:08.701Z,67.55
2018-03-06T11:44:08.821Z,67.55
2018-03-06T11:45:08.743Z,67.55
2018-03-06T11:46:08.763Z,67.97
2018-03-06T11:47:08.784Z,67.40
2018-03-06T11:48:08.805Z,67.77
2018-03-06T11:49:08.826Z,67.49
2018-03-06T11:50:08.847Z,67.40
2018-03-06T11:51:08.868Z,68.41
2018-03-06T11:52:08.889Z,68.41
2018-03-06T11:53:08.909Z,68.32
2018-03-06T11:54:08.930Z,68.26
2018-03-06T11:55:08.951Z,68.22
2018-03-06T11:56:08.972Z,67.30
2018-03-06T11:57:08.993Z,67.65
2018-03-06T11:58:09.018Z,67.36
2018-03-06T11:59:09.035Z,67.40
2018-03-06T12:00:09.056Z,66.82
2018-03-06T12:01:09.076Z,67.01
2018-03-06T12:02:09.098Z,66.63
2018-03-06T12:03:09.120Z,67.27
2018-03-06T12:04:09.141Z,67.55
2018-03-06T12:05:09.161Z,67.17
2018-03-06T12:06:09.182Z,67.46
2018-03-06T12:07:09.242Z,67.36
2018-03-06T12:08:09.223Z,67.36
2018-03-06T12:09:09.244Z,67.74
2018-03-06T12:10:09.266Z,67.83
2018-03-06T12:11:09.287Z,68.41
2018-03-06T12:12:09.308Z,68.03
2018-03-06T12:13:09.328Z,67.36
2018-03-06T12:14:09.349Z,67.36
2018-03-06T12:15:09.372Z,67.49
2018-03-06T12:16:09.391Z,67.11
2018-03-06T12:17:09.412Z,66.53
2018-03-06T12:18:09.433Z,66.25
2018-03-06T12:19:09.453Z,66.53
2018-03-06T12:20:09.475Z,66.63
2018-03-06T12:21:09.496Z,66.35
2018-03-06T12:22:09.517Z,66.35
2018-03-06T12:23:09.540Z,66.06
2018-03-06T12:24:09.559Z,66.53
2018-03-06T12:25:09.588Z,66.25
2018-03-06T12:26:09.602Z,66.44
2018-03-06T12:27:09.624Z,66.06
2018-03-06T12:28:09.644Z,65.39
2018-03-06T12:29:09.665Z,64.65
2018-03-06T12:30:09.687Z,64.47
2018-03-06T12:31:09.707Z,65.14
2018-03-06T12:32:09.728Z,64.65
2018-03-06T12:33:09.749Z,64.62
2018-03-06T12:34:09.771Z,64.91
2018-03-06T12:35:09.792Z,64.81
2018-03-06T12:36:09.813Z,64.53
2018-03-06T12:37:09.835Z,64.91
2018-03-06T12:38:09.857Z,64.53
2018-03-06T12:39:09.878Z,64.18
2018-03-06T12:40:09.899Z,64.65
2018-03-06T12:41:09.920Z,64.94
2018-03-06T12:42:09.942Z,65.04
2018-03-06T12:43:09.964Z,64.56
2018-03-06T12:44:09.985Z,64.75
2018-03-06T12:45:10.006Z,64.62
2018-03-06T12:46:10.027Z,64.81
2018-03-06T12:47:10.049Z,64.43
2018-03-06T12:48:10.070Z,64.53
2018-03-06T12:49:10.095Z,64.34
2018-03-06T12:50:10.114Z,64.81
2018-03-06T12:51:10.135Z,65.04
2018-03-06T12:52:10.156Z,65.52
2018-03-06T12:53:10.178Z,64.94